createdAt,value
2019-05-01T00:03:19.780Z,24.43
2019-05-01T00:06:26.187Z,21.40
2019-05-01T00:09:29.497Z,24.77
2019-05-01T00:12:32.433Z,25.77
2019-05-01T00:15:37.551Z,25.57
2019-05-01T00:18:40.470Z,28.23
2019-05-01T00:21:43.488Z,29.60
2019-05-01T00:24:46.485Z,31.10
2019-05-01T00:27:49.543Z,24.27
2019-05-01T00:30:52.981Z,24.77
2019-05-01T00:33:56.028Z,33.10
2019-05-01T00:36:59.034Z,31.30
2019-05-01T00:40:01.991Z,23.93
2019-05-01T00:43:05.647Z,25.83
2019-05-01T00:46:08.560Z,33.13
2019-05-01T00:49:11.487Z,31.23
2019-05-01T00:52:14.395Z,26.83
2019-05-01T00:55:35.520Z,34.60
2019-05-01T00:59:12.824Z,30.20
2019-05-01T01:02:35.519Z,33.27
2019-05-01T01:05:38.444Z,32.97
2019-05-01T01:08:41.363Z,31.40
2019-05-01T01:11:44.658Z,32.30
2019-05-01T01:14:48.083Z,31.47
2019-05-01T01:17:50.985Z,26.03
2019-05-01T01:20:53.908Z,35.43
2019-05-01T01:23:57.572Z,29.07
2019-05-01T01:27:00.596Z,34.90
2019-05-01T01:30:05.769Z,27.07
2019-05-01T01:33:08.779Z,27.70
2019-05-01T01:36:11.711Z,33.80
2019-05-01T01:39:14.618Z,34.67
2019-05-01T01:42:18.228Z,36.60
2019-05-01T01:45:37.265Z,27.63
2019-05-01T01:48:40.222Z,30.83
2019-05-01T01:51:43.133Z,32.30
2019-05-01T01:54:46.560Z,34.63
2019-05-01T01:57:49.465Z,35.33
2019-05-01T02:01:12.291Z,32.83
2019-05-01T02:04:40.781Z,33.63
2019-05-01T02:07:44.683Z,32.40
2019-05-01T02:10:47.810Z,28.07
2019-05-01T02:13:54.896Z,39.07
2019-05-01T02:16:57.832Z,35.87
2019-05-01T02:20:00.864Z,34.27
2019-05-01T02:23:03.882Z,34.23
2019-05-01T02:26:08.811Z,32.30
2019-05-01T02:29:23.612Z,29.73
2019-05-01T02:32:28.735Z,37.20
2019-05-01T02:35:34.388Z,28.70
2019-05-01T02:38:39.995Z,36.10
2019-05-01T02:41:44.725Z,27.60
2019-05-01T02:44:51.650Z,30.70
2019-05-01T02:47:55.392Z,33.87
2019-05-01T02:51:02.382Z,39.40
2019-05-01T02:54:05.679Z,42.07
2019-05-01T02:57:13.230Z,32.17
2019-05-01T03:00:16.161Z,30.53
2019-05-01T03:03:20.182Z,29.80
2019-05-01T03:06:24.113Z,33.20
2019-05-01T03:09:27.113Z,32.77
2019-05-01T03:12:33.025Z,38.23
2019-05-01T03:15:36.872Z,39.33
2019-05-01T03:18:45.223Z,36.43
2019-05-01T03:21:57.234Z,35.73
2019-05-01T03:25:00.370Z,41.40
2019-05-01T03:28:03.687Z,39.63
2019-05-01T03:31:07.235Z,46.77
2019-05-01T03:34:10.358Z,38.37
2019-05-01T03:37:13.673Z,35.73
2019-05-01T03:40:16.599Z,34.60
2019-05-01T03:43:20.353Z,38.20
2019-05-01T03:46:23.276Z,38.77
2019-05-01T03:49:26.633Z,36.03
2019-05-01T03:52:30.496Z,36.17
2019-05-01T03:55:33.622Z,36.60
2019-05-01T03:58:37.539Z,41.03
2019-05-01T04:01:48.114Z,30.90
2019-05-01T04:04:51.129Z,42.67
2019-05-01T04:07:54.155Z,38.70
2019-05-01T04:10:57.261Z,40.47
2019-05-01T04:14:00.309Z,35.03
2019-05-01T04:17:11.873Z,40.73
2019-05-01T04:20:15.306Z,39.90
2019-05-01T04:23:18.728Z,47.80
2019-05-01T04:26:21.936Z,49.43
2019-05-01T04:29:30.840Z,49.47
2019-05-01T04:32:50.800Z,54.47
2019-05-01T04:35:57.136Z,64.03
2019-05-01T04:39:00.337Z,62.33
2019-05-01T04:42:03.542Z,76.23
2019-05-01T04:45:06.885Z,65.93
2019-05-01T04:48:10.049Z,65.30
2019-05-01T04:51:13.297Z,54.63
2019-05-01T04:54:17.024Z,48.60
2019-05-01T04:57:20.130Z,48.40
2019-05-01T05:00:23.048Z,52.50
2019-05-01T05:03:27.675Z,50.73
2019-05-01T05:06:30.597Z,53.23
2019-05-01T05:09:47.169Z,46.87
2019-05-01T05:13:04.730Z,53.77
2019-05-01T05:16:23.444Z,55.93
2019-05-01T05:19:26.732Z,56.60
2019-05-01T05:22:30.549Z,54.37
2019-05-01T05:25:34.359Z,60.00
2019-05-01T05:28:38.692Z,67.33
2019-05-01T05:31:44.176Z,68.90
2019-05-01T05:34:49.616Z,63.90
2019-05-01T05:38:15.512Z,59.63
2019-05-01T05:41:20.949Z,55.07
2019-05-01T05:44:24.817Z,67.40
2019-05-01T05:47:28.258Z,61.03
2019-05-01T05:50:42.464Z,55.77
2019-05-01T05:53:51.814Z,50.30
2019-05-01T05:57:00.058Z,54.53
2019-05-01T06:00:22.511Z,60.50
2019-05-01T06:03:47.825Z,52.20
2019-05-01T06:07:21.147Z,52.47
2019-05-01T06:10:36.544Z,55.73
2019-05-01T06:13:59.012Z,50.83
2019-05-01T06:17:12.727Z,56.50
2019-05-01T06:20:25.721Z,70.43
2019-05-01T06:23:34.774Z,63.20
2019-05-01T06:26:39.452Z,56.43
2019-05-01T06:29:43.344Z,62.33
2019-05-01T06:32:48.140Z,53.23
2019-05-01T06:35:51.272Z,52.17
2019-05-01T06:38:55.700Z,66.10
2019-05-01T06:41:58.734Z,52.67
2019-05-01T06:45:07.879Z,61.87
2019-05-01T06:48:14.166Z,68.33
2019-05-01T06:51:53.394Z,69.93
2019-05-01T06:54:55.343Z,60.80
2019-05-01T06:57:58.493Z,54.23
2019-05-01T07:01:01.392Z,57.03
2019-05-01T07:04:05.147Z,54.20
2019-05-01T07:07:24.090Z,72.07
2019-05-01T07:10:13.904Z,65.57
2019-05-01T07:13:17.162Z,56.13
2019-05-01T07:16:20.524Z,62.50
2019-05-01T07:19:43.340Z,57.43
2019-05-01T07:22:47.469Z,59.03
2019-05-01T07:25:50.425Z,65.57
2019-05-01T07:28:56.182Z,57.73
2019-05-01T07:32:01.691Z,68.93
2019-05-01T07:35:04.166Z,65.27
2019-05-01T07:38:07.516Z,62.20
2019-05-01T07:41:12.412Z,52.17
2019-05-01T07:44:29.993Z,60.10
2019-05-01T07:47:42.221Z,57.47
2019-05-01T07:50:45.548Z,78.37
2019-05-01T07:53:49.348Z,63.67
2019-05-01T07:56:52.436Z,58.87
2019-05-01T07:59:58.394Z,62.10
2019-05-01T08:03:02.656Z,55.30
2019-05-01T08:06:05.923Z,63.33
2019-05-01T08:09:11.351Z,74.20
2019-05-01T08:12:18.876Z,60.23
2019-05-01T08:15:22.532Z,55.50
2019-05-01T08:18:51.342Z,63.37
2019-05-01T08:22:03.091Z,65.47
2019-05-01T08:25:08.008Z,73.33
2019-05-01T08:28:22.649Z,57.87
2019-05-01T08:31:38.560Z,62.23
2019-05-01T08:34:48.671Z,55.37
2019-05-01T08:37:46.301Z,61.23
2019-05-01T08:40:50.782Z,51.00
2019-05-01T08:43:55.892Z,54.63
2019-05-01T08:47:05.793Z,66.70
2019-05-01T08:50:11.670Z,56.67
2019-05-01T08:53:18.113Z,58.83
2019-05-01T08:56:22.081Z,60.10
2019-05-01T08:59:25.797Z,62.27
2019-05-01T09:02:28.894Z,48.57
2019-05-01T09:05:33.902Z,52.13
2019-05-01T09:08:36.897Z,66.03
2019-05-01T09:11:39.827Z,55.40
2019-05-01T09:14:42.756Z,52.80
2019-05-01T09:17:45.703Z,53.43
2019-05-01T09:20:51.031Z,51.33
2019-05-01T09:23:53.978Z,46.47
2019-05-01T09:27:24.008Z,58.97
2019-05-01T09:30:31.478Z,52.70
2019-05-01T09:33:34.533Z,57.20
2019-05-01T09:36:38.547Z,63.13
2019-05-01T09:39:41.570Z,58.93
2019-05-01T09:42:44.723Z,61.93
2019-05-01T09:45:48.234Z,53.60
2019-05-01T09:48:51.259Z,65.80
2019-05-01T09:52:01.958Z,69.50
2019-05-01T09:55:17.963Z,76.30
2019-05-01T09:58:20.941Z,66.73
2019-05-01T10:01:31.446Z,71.60
2019-05-01T10:04:31.215Z,65.13
2019-05-01T10:07:34.701Z,60.23
2019-05-01T10:10:37.617Z,70.70
2019-05-01T10:13:40.916Z,63.20
2019-05-01T10:16:43.817Z,68.70
2019-05-01T10:19:46.747Z,73.47
2019-05-01T10:22:51.644Z,71.40
2019-05-01T10:25:57.096Z,84.10
2019-05-01T10:29:21.382Z,78.27
2019-05-01T10:32:44.505Z,77.07
2019-05-01T10:36:07.044Z,79.53
2019-05-01T10:39:10.759Z,71.83
2019-05-01T10:42:13.695Z,79.90
2019-05-01T10:45:16.625Z,71.83
2019-05-01T10:48:19.536Z,75.33
2019-05-01T10:51:22.465Z,80.40
2019-05-01T10:54:25.376Z,75.17
2019-05-01T10:57:28.302Z,79.63
2019-05-01T11:00:31.628Z,81.60
2019-05-01T11:03:34.541Z,85.50
2019-05-01T11:06:37.509Z,76.87
2019-05-01T11:09:40.425Z,91.17
2019-05-01T11:12:43.384Z,78.97
2019-05-01T11:15:46.316Z,72.47
2019-05-01T11:18:49.229Z,80.80
2019-05-01T11:21:52.279Z,79.23
2019-05-01T11:24:55.215Z,72.10
2019-05-01T11:27:58.140Z,74.07
2019-05-01T11:31:01.060Z,79.40
2019-05-01T11:34:26.331Z,66.47
2019-05-01T11:37:40.057Z,75.40
2019-05-01T11:40:46.648Z,66.30
2019-05-01T11:43:49.574Z,66.90
2019-05-01T11:46:52.515Z,68.77
2019-05-01T11:49:55.414Z,82.30
2019-05-01T11:52:59.336Z,64.40
2019-05-01T11:56:02.238Z,68.30
2019-05-01T11:59:05.177Z,67.43
2019-05-01T12:02:08.117Z,79.90
2019-05-01T12:05:11.024Z,78.03
2019-05-01T12:08:13.992Z,73.00
2019-05-01T12:11:18.811Z,71.40
2019-05-01T12:14:21.769Z,67.73
2019-05-01T12:17:33.843Z,73.90
2019-05-01T12:20:36.794Z,67.17
2019-05-01T12:23:39.724Z,57.77
2019-05-01T12:26:42.635Z,68.00
2019-05-01T12:29:45.597Z,64.47
2019-05-01T12:32:48.671Z,72.33
2019-05-01T12:35:54.012Z,74.80
2019-05-01T12:38:57.271Z,71.07
2019-05-01T12:42:01.192Z,87.17
2019-05-01T12:45:07.163Z,74.20
2019-05-01T12:48:10.856Z,81.23
2019-05-01T12:51:13.875Z,76.67
2019-05-01T12:54:35.259Z,65.30
2019-05-01T12:57:38.185Z,82.13
2019-05-01T13:00:44.448Z,79.70
2019-05-01T13:03:47.408Z,76.67
2019-05-01T13:06:55.729Z,79.50
2019-05-01T13:09:59.182Z,77.63
2019-05-01T13:13:02.117Z,74.10
2019-05-01T13:16:06.151Z,86.73
2019-05-01T13:19:09.078Z,73.93
2019-05-01T13:22:11.993Z,70.50
2019-05-01T13:25:14.936Z,70.60
2019-05-01T13:28:36.146Z,73.37
2019-05-01T13:31:52.583Z,74.03
2019-05-01T13:34:55.523Z,76.00
2019-05-01T13:37:59.532Z,81.83
2019-05-01T13:41:02.507Z,73.77
2019-05-01T13:44:05.617Z,81.33
2019-05-01T13:47:08.570Z,62.90
2019-05-01T13:50:11.879Z,66.30
2019-05-01T13:53:14.936Z,70.33
2019-05-01T13:56:17.975Z,73.63
2019-05-01T13:59:20.885Z,81.13
2019-05-01T14:02:23.838Z,68.97
2019-05-01T14:05:27.081Z,77.40
2019-05-01T14:08:29.993Z,73.53
2019-05-01T14:11:32.934Z,72.80
2019-05-01T14:14:35.867Z,72.10
2019-05-01T14:17:38.804Z,72.40
2019-05-01T14:21:16.508Z,67.37
2019-05-01T14:24:32.057Z,72.57
2019-05-01T14:27:34.983Z,70.67
2019-05-01T14:30:37.925Z,63.47
2019-05-01T14:33:40.835Z,64.97
2019-05-01T14:36:43.782Z,54.00
2019-05-01T14:39:46.845Z,59.07
2019-05-01T14:42:49.778Z,56.23
2019-05-01T14:45:52.692Z,77.37
2019-05-01T14:48:55.626Z,59.10
2019-05-01T14:51:58.584Z,61.63
2019-05-01T14:55:01.527Z,63.13
2019-05-01T14:58:04.585Z,57.50
2019-05-01T15:01:07.507Z,51.90
2019-05-01T15:04:10.458Z,62.67
2019-05-01T15:07:14.394Z,71.97
2019-05-01T15:10:17.835Z,59.27
2019-05-01T15:13:41.831Z,68.57
2019-05-01T15:16:49.650Z,74.67
2019-05-01T15:20:00.518Z,67.73
2019-05-01T15:23:03.491Z,70.07
2019-05-01T15:26:06.428Z,79.50
2019-05-01T15:29:09.368Z,73.40
2019-05-01T15:32:12.273Z,78.33
2019-05-01T15:35:15.203Z,82.27
2019-05-01T15:38:18.156Z,75.97
2019-05-01T15:41:43.855Z,92.47
2019-05-01T15:44:47.887Z,84.53
2019-05-01T15:47:50.800Z,90.97
2019-05-01T15:50:53.737Z,93.13
2019-05-01T15:53:56.687Z,85.30
2019-05-01T15:56:59.616Z,92.03
2019-05-01T16:00:04.196Z,80.97
2019-05-01T16:03:09.188Z,95.17
2019-05-01T16:06:12.219Z,88.17
2019-05-01T16:09:15.331Z,87.57
2019-05-01T16:12:38.609Z,84.10
2019-05-01T16:15:41.549Z,90.30
2019-05-01T16:18:44.465Z,92.00
2019-05-01T16:21:47.756Z,90.73
2019-05-01T16:24:50.659Z,78.63
2019-05-01T16:27:53.591Z,84.67
2019-05-01T16:30:57.222Z,86.77
2019-05-01T16:34:01.236Z,82.87
2019-05-01T16:37:04.389Z,100.50
2019-05-01T16:40:17.595Z,80.90
2019-05-01T16:43:20.530Z,73.37
2019-05-01T16:46:23.469Z,90.00
2019-05-01T16:49:26.389Z,79.50
2019-05-01T16:52:31.242Z,72.23
2019-05-01T16:55:34.178Z,77.73
2019-05-01T16:58:37.591Z,80.50
2019-05-01T17:02:03.184Z,82.77
2019-05-01T17:05:24.286Z,79.10
2019-05-01T17:08:36.678Z,69.03
2019-05-01T17:11:40.092Z,71.60
2019-05-01T17:14:43.008Z,62.87
2019-05-01T17:17:46.050Z,76.27
2019-05-01T17:20:48.970Z,61.17
2019-05-01T17:23:51.992Z,68.73
2019-05-01T17:26:55.324Z,63.43
2019-05-01T17:29:58.762Z,64.37
2019-05-01T17:33:01.694Z,53.13
2019-05-01T17:36:04.719Z,65.50
2019-05-01T17:39:07.841Z,64.73
2019-05-01T17:42:12.275Z,69.03
2019-05-01T17:45:15.222Z,62.30
2019-05-01T17:48:18.154Z,62.40
2019-05-01T17:51:21.055Z,57.70
2019-05-01T17:54:23.986Z,66.07
2019-05-01T17:57:26.912Z,50.20
2019-05-01T18:00:48.070Z,50.67
2019-05-01T18:04:25.394Z,57.77
2019-05-01T18:07:33.202Z,59.63
2019-05-01T18:10:34.210Z,67.03
2019-05-01T18:13:38.919Z,48.60
2019-05-01T18:16:42.174Z,43.23
2019-05-01T18:19:45.075Z,46.00
2019-05-01T18:23:12.118Z,50.87
2019-05-01T18:26:21.657Z,49.50
2019-05-01T18:29:44.741Z,50.83
2019-05-01T18:32:52.096Z,48.30
2019-05-01T18:35:52.818Z,51.43
2019-05-01T18:38:59.986Z,51.03
2019-05-01T18:42:08.352Z,46.37
2019-05-01T18:45:31.628Z,49.37
2019-05-01T18:48:34.538Z,50.17
2019-05-01T18:51:40.713Z,49.47
2019-05-01T18:54:42.978Z,45.70
2019-05-01T18:57:45.895Z,44.50
2019-05-01T19:00:48.832Z,50.63
2019-05-01T19:03:51.789Z,45.03
2019-05-01T19:06:54.716Z,50.00
2019-05-01T19:09:57.668Z,44.73
2019-05-01T19:13:00.596Z,49.03
2019-05-01T19:16:07.926Z,41.90
2019-05-01T19:19:08.501Z,42.43
2019-05-01T19:22:11.522Z,42.97
2019-05-01T19:25:16.423Z,50.43
2019-05-01T19:28:20.707Z,51.40
2019-05-01T19:31:23.644Z,56.17
2019-05-01T19:34:26.567Z,48.37
2019-05-01T19:37:31.065Z,49.33
2019-05-01T19:40:34.467Z,53.67
2019-05-01T19:43:40.580Z,51.43
2019-05-01T19:46:43.433Z,54.87
2019-05-01T19:49:46.492Z,52.83
2019-05-01T19:52:49.387Z,52.50
2019-05-01T19:55:52.317Z,50.80
2019-05-01T19:58:55.342Z,62.53
2019-05-01T20:01:58.279Z,48.60
2019-05-01T20:05:01.329Z,58.17
2019-05-01T20:08:04.345Z,56.10
2019-05-01T20:11:09.534Z,56.07
2019-05-01T20:14:12.190Z,63.70
2019-05-01T20:17:15.129Z,52.00
2019-05-01T20:20:18.028Z,54.23
2019-05-01T20:23:21.165Z,56.87
2019-05-01T20:26:26.940Z,58.60
2019-05-01T20:29:28.919Z,56.30
2019-05-01T20:32:31.850Z,59.30
2019-05-01T20:35:34.779Z,56.63
2019-05-01T20:38:37.699Z,65.40
2019-05-01T20:41:40.736Z,56.87
2019-05-01T20:44:43.641Z,59.80
2019-05-01T20:47:48.175Z,50.57
2019-05-01T20:50:51.284Z,57.43
2019-05-01T20:53:54.222Z,54.17
2019-05-01T20:57:02.198Z,54.17
2019-05-01T21:00:06.346Z,63.17
2019-05-01T21:03:14.164Z,49.40
2019-05-01T21:06:28.369Z,59.13
2019-05-01T21:09:46.743Z,55.43
2019-05-01T21:12:39.002Z,57.87
2019-05-01T21:15:41.907Z,61.93
2019-05-01T21:18:45.626Z,51.77
2019-05-01T21:21:48.524Z,54.67
2019-05-01T21:24:53.161Z,61.00
2019-05-01T21:27:56.735Z,62.07
2019-05-01T21:30:59.928Z,63.40
2019-05-01T21:34:04.282Z,54.27
2019-05-01T21:37:07.659Z,57.23
2019-05-01T21:40:12.746Z,58.13
2019-05-01T21:43:15.745Z,57.70
2019-05-01T21:46:18.643Z,51.60
2019-05-01T21:49:22.936Z,58.43
2019-05-01T21:52:27.013Z,61.93
2019-05-01T21:55:31.791Z,53.80
2019-05-01T21:58:35.934Z,65.80
2019-05-01T22:01:39.062Z,61.23
2019-05-01T22:04:42.003Z,54.43
2019-05-01T22:07:45.223Z,59.77
2019-05-01T22:10:52.069Z,68.50
2019-05-01T22:13:55.000Z,55.83
2019-05-01T22:16:58.815Z,57.40
2019-05-01T22:20:01.936Z,72.80
2019-05-01T22:23:10.782Z,64.77
2019-05-01T22:26:13.802Z,67.37
2019-05-01T22:29:18.704Z,64.43
2019-05-01T22:32:41.572Z,63.50
2019-05-01T22:35:47.604Z,69.43
2019-05-01T22:38:50.519Z,65.50
2019-05-01T22:41:53.438Z,57.93
2019-05-01T22:44:56.346Z,73.70
2019-05-01T22:47:59.355Z,63.93
2019-05-01T22:51:18.025Z,72.10
2019-05-01T22:54:20.944Z,53.50
2019-05-01T22:57:23.871Z,62.83
2019-05-01T23:01:02.837Z,63.47
2019-05-01T23:04:07.466Z,56.67
2019-05-01T23:07:11.803Z,58.27
2019-05-01T23:10:16.206Z,68.73
2019-05-01T23:13:19.132Z,62.43
2019-05-01T23:16:28.737Z,56.27
2019-05-01T23:19:29.672Z,59.37
2019-05-01T23:22:32.737Z,62.83
2019-05-01T23:25:36.499Z,54.47
2019-05-01T23:28:41.087Z,55.37
2019-05-01T23:31:44.089Z,62.50
2019-05-01T23:34:47.004Z,66.27
2019-05-01T23:37:49.944Z,54.83
2019-05-01T23:40:53.006Z,54.20
2019-05-01T23:43:58.113Z,53.83
2019-05-01T23:47:00.951Z,59.57
2019-05-01T23:50:04.600Z,53.70
2019-05-01T23:53:09.079Z,49.10
2019-05-01T23:56:12.336Z,54.60
2019-05-01T23:59:15.611Z,58.93
